createdAt,value
2018-05-23T00:01:36.067Z,1.90
2018-05-23T00:04:42.165Z,1.67
2018-05-23T00:07:48.216Z,2.27
2018-05-23T00:10:53.522Z,2.20
2018-05-23T00:13:59.688Z,1.77
2018-05-23T00:17:05.289Z,2.60
2018-05-23T00:20:11.313Z,1.90
2018-05-23T00:23:17.246Z,2.00
2018-05-23T00:26:22.942Z,2.60
2018-05-23T00:29:27.573Z,1.90
2018-05-23T00:32:32.801Z,2.00
2018-05-23T00:35:38.016Z,2.00
2018-05-23T00:38:43.209Z,2.20
2018-05-23T00:41:48.901Z,1.70
2018-05-23T00:44:53.820Z,2.30
2018-05-23T00:47:59.032Z,2.37
2018-05-23T00:51:05.153Z,1.83
2018-05-23T00:54:11.113Z,1.90
2018-05-23T00:57:16.326Z,1.70
2018-05-23T01:00:21.974Z,2.23
2018-05-23T01:03:26.578Z,2.43
2018-05-23T01:06:31.769Z,2.17
2018-05-23T01:09:36.990Z,2.00
2018-05-23T01:12:42.185Z,2.20
2018-05-23T01:15:47.072Z,2.20
2018-05-23T01:18:52.185Z,2.33
2018-05-23T01:21:57.401Z,2.10
2018-05-23T01:25:03.535Z,2.20
2018-05-23T01:28:08.465Z,2.30
2018-05-23T01:31:14.181Z,2.00
2018-05-23T01:34:19.999Z,2.47
2018-05-23T01:37:25.897Z,2.30
2018-05-23T01:40:31.856Z,2.17
2018-05-23T01:43:37.305Z,1.93
2018-05-23T01:46:44.456Z,2.30
2018-05-23T01:49:49.998Z,1.90
2018-05-23T01:52:56.141Z,2.50
2018-05-23T01:56:01.353Z,2.00
2018-05-23T01:59:06.553Z,2.23
2018-05-23T02:02:12.359Z,1.97
2018-05-23T02:05:17.316Z,2.30
2018-05-23T02:08:22.517Z,2.23
2018-05-23T02:11:27.495Z,2.33
2018-05-23T02:14:32.698Z,2.60
2018-05-23T02:17:37.894Z,2.00
2018-05-23T02:20:42.785Z,2.00
2018-05-23T02:23:47.972Z,1.80
2018-05-23T02:26:53.189Z,3.10
2018-05-23T02:29:58.401Z,2.13
2018-05-23T02:33:03.635Z,2.00
2018-05-23T02:36:09.953Z,2.40
2018-05-23T02:39:15.877Z,2.13
2018-05-23T02:42:21.758Z,2.27
2018-05-23T02:45:27.648Z,2.30
2018-05-23T02:48:33.881Z,2.10
2018-05-23T02:51:39.790Z,2.43
2018-05-23T02:54:45.826Z,1.90
2018-05-23T02:57:51.429Z,2.37
2018-05-23T03:00:57.134Z,2.00
2018-05-23T03:04:02.333Z,1.87
2018-05-23T03:07:07.984Z,2.20
2018-05-23T03:10:13.186Z,2.60
2018-05-23T03:13:19.199Z,1.77
2018-05-23T03:16:25.225Z,2.33
2018-05-23T03:19:31.200Z,2.10
2018-05-23T03:22:36.921Z,2.57
2018-05-23T03:25:43.042Z,2.67
2018-05-23T03:28:48.939Z,2.10
2018-05-23T03:31:55.983Z,2.10
2018-05-23T03:35:01.817Z,2.50
2018-05-23T03:38:07.741Z,2.10
2018-05-23T03:41:14.230Z,2.50
2018-05-23T03:44:19.421Z,2.10
2018-05-23T03:47:24.630Z,2.70
2018-05-23T03:50:29.844Z,2.50
2018-05-23T03:53:35.857Z,2.00
2018-05-23T03:56:41.561Z,2.20
2018-05-23T03:59:58.798Z,2.57
2018-05-23T04:03:15.379Z,2.00
2018-05-23T04:10:20.450Z,2.70
2018-05-23T04:13:26.609Z,2.33
2018-05-23T04:16:32.212Z,2.73
2018-05-23T04:19:38.423Z,3.00
2018-05-23T04:22:43.652Z,2.53
2018-05-23T04:25:48.864Z,2.70
2018-05-23T04:28:55.161Z,2.77
2018-05-23T04:32:00.381Z,3.17
2018-05-23T04:35:05.599Z,2.60
2018-05-23T04:38:10.814Z,2.70
2018-05-23T04:41:16.015Z,2.70
2018-05-23T04:44:21.230Z,2.83
2018-05-23T04:47:26.156Z,2.73
2018-05-23T04:50:32.159Z,2.47
2018-05-23T04:53:38.176Z,2.30
2018-05-23T04:56:43.402Z,3.40
2018-05-23T04:59:48.613Z,3.27
2018-05-23T05:02:54.221Z,2.90
2018-05-23T05:05:59.437Z,2.87
2018-05-23T05:09:03.844Z,2.70
2018-05-23T05:12:08.528Z,2.90
2018-05-23T05:15:14.455Z,2.87
2018-05-23T05:18:20.679Z,2.57
2018-05-23T05:21:26.453Z,2.73
2018-05-23T05:24:32.674Z,3.00
2018-05-23T05:27:38.241Z,2.40
2018-05-23T05:30:44.177Z,3.00
2018-05-23T05:33:49.922Z,2.97
2018-05-23T05:36:55.967Z,2.80
2018-05-23T05:40:01.934Z,2.80
2018-05-23T05:43:08.113Z,2.30
2018-05-23T05:46:13.925Z,2.73
2018-05-23T05:49:19.869Z,3.47
2018-05-23T05:52:26.193Z,2.50
2018-05-23T05:55:31.397Z,2.80
2018-05-23T05:58:37.519Z,2.43
2018-05-23T06:01:44.871Z,2.23
2018-05-23T06:04:50.773Z,2.30
2018-05-23T06:07:55.976Z,1.70
2018-05-23T06:11:01.826Z,1.90
2018-05-23T06:14:07.974Z,1.77
2018-05-23T06:17:13.899Z,2.37
2018-05-23T06:20:19.816Z,2.57
2018-05-23T06:23:25.270Z,1.90
2018-05-23T06:26:31.491Z,2.37
2018-05-23T06:29:37.438Z,1.93
2018-05-23T06:32:43.374Z,2.07
2018-05-23T06:35:49.494Z,2.50
2018-05-23T06:38:55.704Z,1.87
2018-05-23T06:42:00.886Z,2.03
2018-05-23T06:45:05.696Z,2.10
2018-05-23T06:48:10.897Z,1.90
2018-05-23T06:51:16.105Z,1.90
2018-05-23T06:54:21.305Z,2.20
2018-05-23T06:57:26.526Z,2.00
2018-05-23T07:00:31.752Z,1.97
2018-05-23T07:03:36.950Z,1.80
2018-05-23T07:06:42.154Z,1.97
2018-05-23T07:09:47.370Z,1.60
2018-05-23T07:12:52.573Z,1.77
2018-05-23T07:15:58.347Z,1.57
2018-05-23T07:19:04.049Z,1.80
2018-05-23T07:22:10.083Z,2.00
2018-05-23T07:25:15.289Z,1.80
2018-05-23T07:28:20.917Z,1.77
2018-05-23T07:31:27.041Z,1.67
2018-05-23T07:34:32.682Z,2.03
2018-05-23T07:37:37.874Z,2.13
2018-05-23T07:40:43.077Z,1.60
2018-05-23T07:43:49.183Z,2.10
2018-05-23T07:46:56.234Z,1.70
2018-05-23T07:50:01.518Z,1.63
2018-05-23T07:53:07.145Z,1.70
2018-05-23T07:56:13.175Z,1.30
2018-05-23T07:59:19.215Z,1.50
2018-05-23T08:02:25.246Z,1.57
2018-05-23T08:05:31.185Z,1.40
2018-05-23T08:08:36.404Z,2.00
2018-05-23T08:11:42.429Z,1.33
2018-05-23T08:14:48.346Z,1.67
2018-05-23T08:17:53.553Z,1.47
2018-05-23T08:20:58.748Z,2.27
2018-05-23T08:24:04.266Z,1.43
2018-05-23T08:27:10.154Z,1.57
2018-05-23T08:30:16.007Z,1.93
2018-05-23T08:33:22.128Z,1.47
2018-05-23T08:36:27.420Z,1.80
2018-05-23T08:39:33.454Z,1.90
2018-05-23T08:42:39.461Z,1.40
2018-05-23T08:45:44.674Z,1.30
2018-05-23T08:48:49.868Z,1.47
2018-05-23T08:51:55.082Z,1.60
2018-05-23T08:55:00.313Z,1.30
2018-05-23T08:58:04.997Z,1.60
2018-05-23T09:01:10.198Z,1.50
2018-05-23T09:04:15.406Z,1.30
2018-05-23T09:07:20.611Z,1.43
2018-05-23T09:10:25.497Z,1.33
2018-05-23T09:13:30.690Z,1.33
2018-05-23T09:16:36.841Z,1.47
2018-05-23T09:19:42.978Z,1.37
2018-05-23T09:22:48.997Z,1.50
2018-05-23T09:25:55.131Z,1.30
2018-05-23T09:29:01.047Z,1.83
2018-05-23T09:32:07.164Z,1.17
2018-05-23T09:35:13.373Z,0.80
2018-05-23T09:38:19.381Z,1.10
2018-05-23T09:41:25.444Z,1.57
2018-05-23T09:44:31.563Z,1.60
2018-05-23T09:47:37.610Z,1.27
2018-05-23T09:50:43.642Z,1.00
2018-05-23T09:53:49.764Z,1.37
2018-05-23T09:56:54.986Z,1.50
2018-05-23T10:00:00.603Z,1.20
2018-05-23T10:03:05.546Z,1.53
2018-05-23T10:06:11.636Z,1.40
2018-05-23T10:09:17.791Z,1.33
2018-05-23T10:12:23.002Z,2.10
2018-05-23T10:15:28.730Z,1.30
2018-05-23T10:18:34.781Z,1.20
2018-05-23T10:21:40.802Z,1.33
2018-05-23T10:24:46.725Z,1.30
2018-05-23T10:27:52.648Z,1.30
2018-05-23T10:30:58.770Z,1.50
2018-05-23T10:34:04.480Z,1.10
2018-05-23T10:37:09.393Z,1.30
2018-05-23T10:40:14.634Z,1.37
2018-05-23T10:43:35.149Z,1.60
2018-05-23T10:46:41.194Z,1.50
2018-05-23T10:49:46.906Z,1.80
2018-05-23T10:52:52.125Z,1.73
2018-05-23T10:55:57.362Z,1.30
2018-05-23T10:59:03.406Z,1.57
2018-05-23T11:02:09.145Z,1.23
2018-05-23T11:05:14.344Z,1.33
2018-05-23T11:08:19.565Z,1.40
2018-05-23T11:11:24.765Z,1.63
2018-05-23T11:14:29.981Z,1.80
2018-05-23T11:17:35.195Z,1.70
2018-05-23T11:20:40.397Z,2.27
2018-05-23T11:23:46.649Z,1.60
2018-05-23T11:26:54.260Z,1.57
2018-05-23T11:30:00.592Z,1.27
2018-05-23T11:33:05.994Z,1.53
2018-05-23T11:36:11.832Z,1.60
2018-05-23T11:39:17.953Z,1.67
2018-05-23T11:42:23.638Z,1.90
2018-05-23T11:45:28.817Z,1.87
2018-05-23T11:48:35.578Z,1.63
2018-05-23T11:51:41.189Z,1.57
2018-05-23T11:54:46.243Z,1.50
2018-05-23T11:57:51.573Z,1.70
2018-05-23T12:00:56.793Z,1.50
2018-05-23T12:04:01.994Z,1.63
2018-05-23T12:07:08.113Z,1.53
2018-05-23T12:10:14.245Z,1.50
2018-05-23T12:13:19.583Z,2.00
2018-05-23T12:16:24.785Z,2.30
2018-05-23T12:19:30.091Z,2.53
2018-05-23T12:22:36.260Z,1.97
2018-05-23T12:25:42.266Z,1.87
2018-05-23T12:28:48.284Z,2.13
2018-05-23T12:31:54.069Z,1.50
2018-05-23T12:34:59.279Z,1.87
2018-05-23T12:38:04.876Z,1.77
2018-05-23T12:41:10.606Z,2.00
2018-05-23T12:44:16.712Z,2.20
2018-05-23T12:47:21.921Z,1.80
2018-05-23T12:50:27.557Z,2.00
2018-05-23T12:53:33.476Z,2.37
2018-05-23T12:56:39.506Z,2.00
2018-05-23T12:59:45.541Z,2.23
2018-05-23T13:02:51.690Z,1.60
2018-05-23T13:05:57.621Z,2.23
2018-05-23T13:09:03.082Z,2.10
2018-05-23T13:12:08.017Z,2.00
2018-05-23T13:15:13.645Z,1.70
2018-05-23T13:18:19.575Z,1.50
2018-05-23T13:21:24.788Z,1.70
2018-05-23T13:24:30.721Z,1.70
2018-05-23T13:27:36.739Z,1.90
2018-05-23T13:30:42.299Z,1.90
2018-05-23T13:33:47.507Z,2.20
2018-05-23T13:36:52.747Z,1.90
2018-05-23T13:39:57.942Z,1.60
2018-05-23T13:43:03.153Z,1.90
2018-05-23T13:46:09.297Z,1.37
2018-05-23T13:49:15.398Z,2.07
2018-05-23T13:52:21.526Z,1.87
2018-05-23T13:55:27.490Z,1.60
2018-05-23T13:58:32.782Z,1.73
2018-05-23T14:01:37.989Z,1.67
2018-05-23T14:04:43.185Z,2.00
2018-05-23T14:07:49.352Z,1.67
2018-05-23T14:10:54.571Z,2.43
2018-05-23T14:14:00.861Z,1.70
2018-05-23T14:17:06.882Z,2.20
2018-05-23T14:20:12.797Z,2.03
2018-05-23T14:23:18.953Z,1.70
2018-05-23T14:26:24.170Z,1.83
2018-05-23T14:29:29.380Z,1.40
2018-05-23T14:32:34.795Z,1.70
2018-05-23T14:35:40.945Z,2.27
2018-05-23T14:38:46.963Z,1.40
2018-05-23T14:41:53.507Z,1.70
2018-05-23T14:44:58.679Z,1.57
2018-05-23T14:48:04.797Z,1.83
2018-05-23T14:51:10.009Z,2.10
2018-05-23T14:54:15.223Z,2.07
2018-05-23T14:57:20.443Z,1.80
2018-05-23T15:00:26.351Z,2.23
2018-05-23T15:03:32.485Z,1.70
2018-05-23T15:06:38.293Z,2.30
2018-05-23T15:09:43.910Z,1.33
2018-05-23T15:12:49.102Z,1.73
2018-05-23T15:15:54.517Z,1.63
2018-05-23T15:18:59.718Z,1.93
2018-05-23T15:22:04.639Z,1.50
2018-05-23T15:25:10.347Z,1.47
2018-05-23T15:28:16.382Z,1.80
2018-05-23T15:31:22.570Z,1.77
2018-05-23T15:34:28.681Z,1.30
2018-05-23T15:37:37.068Z,1.20
2018-05-23T15:40:42.293Z,1.80
2018-05-23T15:43:48.405Z,1.40
2018-05-23T15:46:54.022Z,1.90
2018-05-23T15:50:00.136Z,1.57
2018-05-23T15:53:06.187Z,1.60
2018-05-23T15:56:12.117Z,2.17
2018-05-23T15:59:18.039Z,1.80
2018-05-23T16:02:23.748Z,1.57
2018-05-23T16:05:28.960Z,1.87
2018-05-23T16:08:35.326Z,1.67
2018-05-23T16:11:41.521Z,2.37
2018-05-23T16:14:47.524Z,1.20
2018-05-23T16:17:53.534Z,1.30
2018-05-23T16:20:59.592Z,1.90
2018-05-23T16:24:05.725Z,2.13
2018-05-23T16:27:11.774Z,1.67
2018-05-23T16:30:16.999Z,1.70
2018-05-23T16:33:22.358Z,1.23
2018-05-23T16:36:28.273Z,1.30
2018-05-23T16:39:34.974Z,1.37
2018-05-23T16:42:40.832Z,1.50
2018-05-23T16:45:46.053Z,1.47
2018-05-23T16:48:52.190Z,1.60
2018-05-23T16:51:58.410Z,1.30
2018-05-23T16:55:04.245Z,1.43
2018-05-23T16:58:10.352Z,1.50
2018-05-23T17:01:15.651Z,1.40
2018-05-23T17:04:20.979Z,1.20
2018-05-23T17:07:27.853Z,1.10
2018-05-23T17:10:34.464Z,1.50
2018-05-23T17:13:39.426Z,1.20
2018-05-23T17:16:44.360Z,1.20
2018-05-23T17:19:50.080Z,1.10
2018-05-23T17:22:56.198Z,1.40
2018-05-23T17:26:02.325Z,1.20
2018-05-23T17:29:08.064Z,1.20
2018-05-23T17:32:13.997Z,1.50
2018-05-23T17:35:20.139Z,1.40
2018-05-23T17:38:26.267Z,1.30
2018-05-23T17:41:32.433Z,1.53
2018-05-23T17:44:38.597Z,1.43
2018-05-23T17:47:43.889Z,1.30
2018-05-23T17:50:49.892Z,1.30
2018-05-23T17:53:56.036Z,1.80
2018-05-23T17:57:01.313Z,1.20
2018-05-23T18:00:06.390Z,1.30
2018-05-23T18:03:11.618Z,1.43
2018-05-23T18:06:17.597Z,1.37
2018-05-23T18:09:23.890Z,1.30
2018-05-23T18:12:29.093Z,1.43
2018-05-23T18:15:34.309Z,1.30
2018-05-23T18:18:39.933Z,1.43
2018-05-23T18:21:45.170Z,1.30
2018-05-23T18:24:50.795Z,1.50
2018-05-23T18:27:56.941Z,1.60
2018-05-23T18:31:02.178Z,1.80
2018-05-23T18:34:07.388Z,1.47
2018-05-23T18:37:13.529Z,1.57
2018-05-23T18:40:19.457Z,1.33
2018-05-23T18:43:25.194Z,1.33
2018-05-23T18:46:31.249Z,1.23
2018-05-23T18:49:37.141Z,1.20
2018-05-23T18:52:42.385Z,1.53
2018-05-23T18:55:49.416Z,1.20
2018-05-23T18:58:55.249Z,1.70
2018-05-23T19:02:01.091Z,1.33
2018-05-23T19:05:06.455Z,1.23
2018-05-23T19:08:11.451Z,1.10
2018-05-23T19:11:16.668Z,1.17
2018-05-23T19:14:21.881Z,1.47
2018-05-23T19:17:26.842Z,1.53
2018-05-23T19:20:32.589Z,1.70
2018-05-23T19:23:37.974Z,1.23
2018-05-23T19:26:43.209Z,1.30
2018-05-23T19:29:48.969Z,1.10
2018-05-23T19:32:56.102Z,1.37
2018-05-23T19:36:01.306Z,1.33
2018-05-23T19:39:07.349Z,1.10
2018-05-23T19:42:13.277Z,1.23
2018-05-23T19:45:19.103Z,1.30
2018-05-23T19:48:25.432Z,1.50
2018-05-23T19:51:31.050Z,1.37
2018-05-23T19:54:36.928Z,1.47
2018-05-23T19:57:42.157Z,1.40
2018-05-23T20:00:47.369Z,1.43
2018-05-23T20:03:52.596Z,1.60
2018-05-23T20:06:58.627Z,1.37
2018-05-23T20:10:03.585Z,1.40
2018-05-23T20:13:08.522Z,1.17
2018-05-23T20:16:13.389Z,1.47
2018-05-23T20:19:19.333Z,1.30
2018-05-23T20:22:25.158Z,1.73
2018-05-23T20:25:31.321Z,1.90
2018-05-23T20:28:36.245Z,1.50
2018-05-23T20:31:41.541Z,1.00
2018-05-23T20:34:46.458Z,1.40
2018-05-23T20:37:52.118Z,0.90
2018-05-23T20:40:57.461Z,1.47
2018-05-23T20:44:02.391Z,1.50
2018-05-23T20:47:07.947Z,1.27
2018-05-23T20:50:12.870Z,1.37
2018-05-23T20:53:18.219Z,1.83
2018-05-23T20:56:23.561Z,1.17
2018-05-23T20:59:30.309Z,1.30
2018-05-23T21:02:36.510Z,1.27
2018-05-23T21:05:41.531Z,1.40
2018-05-23T21:08:46.682Z,1.27
2018-05-23T21:11:53.157Z,1.20
2018-05-23T21:14:58.077Z,0.97
2018-05-23T21:18:03.717Z,1.50
2018-05-23T21:21:09.609Z,1.27
2018-05-23T21:24:14.527Z,1.40
2018-05-23T21:27:20.473Z,1.60
2018-05-23T21:30:27.051Z,1.40
2018-05-23T21:33:31.973Z,1.47
2018-05-23T21:36:37.621Z,1.60
2018-05-23T21:39:42.594Z,1.30
2018-05-23T21:42:48.062Z,1.40
2018-05-23T21:45:52.993Z,1.40
2018-05-23T21:48:58.880Z,1.20
2018-05-23T21:52:03.585Z,1.60
2018-05-23T21:55:09.710Z,1.33
2018-05-23T21:58:15.637Z,1.63
2018-05-23T22:01:20.230Z,0.87
2018-05-23T22:04:25.880Z,1.53
2018-05-23T22:07:32.017Z,1.30
2018-05-23T22:10:37.431Z,1.20
2018-05-23T22:13:43.292Z,1.33
2018-05-23T22:16:48.727Z,1.93
2018-05-23T22:19:54.552Z,1.03
2018-05-23T22:22:59.494Z,1.80
2018-05-23T22:26:04.589Z,1.23
2018-05-23T22:29:10.534Z,2.07
2018-05-23T22:32:16.078Z,2.17
2018-05-23T22:35:21.014Z,1.60
2018-05-23T22:38:26.870Z,1.63
2018-05-23T22:41:31.785Z,1.63
2018-05-23T22:44:37.330Z,1.13
2018-05-23T22:47:42.773Z,1.87
2018-05-23T22:50:48.484Z,2.00
2018-05-23T22:53:54.049Z,1.87
2018-05-23T22:56:59.074Z,1.67
2018-05-23T23:00:03.951Z,1.60
2018-05-23T23:03:08.603Z,2.07
2018-05-23T23:06:14.553Z,1.60
2018-05-23T23:09:20.742Z,1.70
2018-05-23T23:12:26.865Z,1.43
2018-05-23T23:15:32.074Z,1.67
2018-05-23T23:18:37.270Z,1.67
2018-05-23T23:21:42.487Z,1.77
2018-05-23T23:24:47.459Z,2.20
2018-05-23T23:27:53.139Z,1.77
2018-05-23T23:30:59.105Z,1.60
2018-05-23T23:34:04.451Z,2.03
2018-05-23T23:37:10.565Z,2.00
2018-05-23T23:40:15.779Z,2.57
2018-05-23T23:43:21.408Z,1.70
2018-05-23T23:46:27.527Z,2.33
2018-05-23T23:49:33.439Z,1.53
2018-05-23T23:52:39.386Z,1.87
2018-05-23T23:55:44.601Z,1.80
2018-05-23T23:58:50.855Z,1.77
